createdAt,value
2018-09-28T00:02:06.003Z,6.97
2018-09-28T00:04:34.195Z,6.27
2018-09-28T00:07:02.609Z,6.40
2018-09-28T00:09:31.015Z,6.80
2018-09-28T00:11:59.234Z,6.40
2018-09-28T00:14:27.402Z,7.43
2018-09-28T00:16:55.592Z,7.27
2018-09-28T00:19:23.873Z,7.30
2018-09-28T00:21:52.065Z,6.97
2018-09-28T00:24:20.275Z,7.97
2018-09-28T00:26:48.443Z,8.50
2018-09-28T00:29:16.637Z,6.87
2018-09-28T00:31:44.810Z,6.50
2018-09-28T00:34:12.991Z,6.10
2018-09-28T00:36:41.187Z,7.13
2018-09-28T00:39:09.871Z,6.73
2018-09-28T00:41:38.026Z,7.93
2018-09-28T00:44:06.193Z,6.83
2018-09-28T00:46:34.388Z,5.97
2018-09-28T00:49:02.675Z,6.07
2018-09-28T00:51:30.853Z,6.57
2018-09-28T00:53:59.031Z,7.30
2018-09-28T00:56:27.223Z,6.23
2018-09-28T00:58:55.431Z,6.00
2018-09-28T01:01:23.593Z,6.10
2018-09-28T01:03:51.801Z,6.20
2018-09-28T01:06:20.007Z,6.23
2018-09-28T01:08:48.202Z,6.57
2018-09-28T01:11:16.374Z,5.90
2018-09-28T01:13:44.581Z,7.33
2018-09-28T01:16:12.751Z,5.97
2018-09-28T01:18:40.938Z,6.17
2018-09-28T01:21:09.104Z,6.57
2018-09-28T01:23:37.290Z,5.70
2018-09-28T01:26:05.734Z,5.87
2018-09-28T01:28:33.921Z,7.00
2018-09-28T01:31:02.088Z,6.43
2018-09-28T01:33:30.487Z,6.10
2018-09-28T01:35:58.654Z,6.23
2018-09-28T01:38:26.866Z,7.07
2018-09-28T01:40:55.062Z,7.67
2018-09-28T01:43:23.222Z,6.60
2018-09-28T01:45:51.406Z,6.93
2018-09-28T01:48:19.636Z,7.03
2018-09-28T01:50:47.842Z,6.80
2018-09-28T01:53:16.122Z,7.00
2018-09-28T01:55:44.317Z,6.93
2018-09-28T01:58:12.524Z,7.50
2018-09-28T02:00:40.703Z,7.13
2018-09-28T02:03:08.870Z,6.40
2018-09-28T02:05:37.047Z,7.27
2018-09-28T02:08:05.212Z,6.20
2018-09-28T02:10:33.601Z,5.93
2018-09-28T02:13:01.780Z,5.80
2018-09-28T02:15:30.209Z,6.63
2018-09-28T02:17:58.411Z,6.27
2018-09-28T02:20:26.617Z,5.67
2018-09-28T02:22:54.821Z,5.97
2018-09-28T02:25:22.994Z,6.97
2018-09-28T02:27:51.154Z,5.83
2018-09-28T02:30:19.326Z,5.87
2018-09-28T02:32:47.537Z,5.67
2018-09-28T02:35:15.706Z,6.20
2018-09-28T02:37:43.919Z,5.97
2018-09-28T02:40:12.115Z,7.07
2018-09-28T02:42:40.291Z,5.90
2018-09-28T02:45:08.509Z,6.80
2018-09-28T02:47:36.889Z,6.27
2018-09-28T02:50:05.068Z,5.50
2018-09-28T02:52:33.259Z,6.50
2018-09-28T02:55:01.418Z,6.37
2018-09-28T02:57:29.586Z,6.30
2018-09-28T02:59:57.767Z,6.73
2018-09-28T03:02:26.129Z,6.90
2018-09-28T03:04:54.330Z,6.00
2018-09-28T03:07:22.503Z,5.93
2018-09-28T03:09:50.674Z,6.97
2018-09-28T03:12:18.866Z,6.40
2018-09-28T03:14:47.077Z,7.27
2018-09-28T03:17:15.264Z,6.70
2018-09-28T03:19:43.448Z,7.60
2018-09-28T03:22:11.615Z,7.00
2018-09-28T03:24:39.823Z,7.27
2018-09-28T03:27:08.036Z,7.10
2018-09-28T03:29:36.241Z,7.80
2018-09-28T03:32:04.418Z,7.47
2018-09-28T03:34:32.603Z,7.77
2018-09-28T03:37:00.859Z,7.13
2018-09-28T03:39:29.073Z,7.20
2018-09-28T03:41:57.326Z,6.87
2018-09-28T03:44:25.488Z,6.70
2018-09-28T03:46:53.692Z,7.37
2018-09-28T03:49:21.931Z,8.03
2018-09-28T03:51:50.696Z,7.33
2018-09-28T03:54:18.858Z,7.63
2018-09-28T03:56:47.074Z,8.27
2018-09-28T03:59:15.715Z,8.00
2018-09-28T04:01:43.900Z,7.27
2018-09-28T04:04:12.099Z,7.37
2018-09-28T04:06:40.509Z,7.20
2018-09-28T04:09:09.631Z,7.27
2018-09-28T04:11:37.898Z,7.87
2018-09-28T04:14:06.077Z,8.77
2018-09-28T04:16:34.286Z,7.43
2018-09-28T04:19:02.461Z,6.80
2018-09-28T04:21:30.643Z,7.93
2018-09-28T04:23:59.155Z,7.70
2018-09-28T04:26:27.337Z,8.10
2018-09-28T04:28:55.527Z,7.50
2018-09-28T04:31:23.737Z,7.10
2018-09-28T04:33:51.895Z,6.80
2018-09-28T04:36:20.080Z,7.60
2018-09-28T04:38:48.285Z,8.37
2018-09-28T04:41:16.463Z,7.67
2018-09-28T04:43:44.715Z,8.30
2018-09-28T04:46:12.897Z,8.20
2018-09-28T04:48:41.464Z,8.43
2018-09-28T04:51:10.507Z,8.00
2018-09-28T04:53:38.686Z,7.90
2018-09-28T04:56:06.979Z,8.63
2018-09-28T04:58:35.158Z,7.47
2018-09-28T05:01:03.333Z,7.53
2018-09-28T05:03:32.073Z,8.10
2018-09-28T05:06:00.361Z,7.40
2018-09-28T05:08:28.602Z,7.23
2018-09-28T05:10:56.767Z,7.50
2018-09-28T05:13:24.922Z,7.97
2018-09-28T05:15:53.152Z,8.47
2018-09-28T05:18:21.286Z,8.30
2018-09-28T05:20:49.463Z,8.23
2018-09-28T05:23:17.627Z,8.40
2018-09-28T05:25:45.779Z,8.50
2018-09-28T05:28:13.946Z,8.93
2018-09-28T05:30:44.975Z,7.60
2018-09-28T05:33:10.311Z,7.60
2018-09-28T05:35:38.528Z,7.57
2018-09-28T05:38:06.992Z,9.00
2018-09-28T05:40:35.196Z,9.80
2018-09-28T05:43:03.529Z,9.47
2018-09-28T05:45:32.037Z,10.07
2018-09-28T05:48:00.296Z,8.97
2018-09-28T05:50:28.520Z,8.43
2018-09-28T05:52:56.733Z,9.70
2018-09-28T05:55:24.940Z,9.13
2018-09-28T05:57:57.386Z,9.53
2018-09-28T06:00:31.050Z,9.30
2018-09-28T06:03:04.734Z,9.23
2018-09-28T06:05:36.699Z,9.23
2018-09-28T06:08:05.260Z,8.47
2018-09-28T06:10:33.685Z,8.73
2018-09-28T06:13:01.920Z,8.97
2018-09-28T06:15:30.369Z,9.20
2018-09-28T06:17:58.633Z,8.57
2018-09-28T06:20:26.798Z,9.27
2018-09-28T06:22:55.009Z,9.00
2018-09-28T06:25:23.223Z,9.27
2018-09-28T06:27:51.985Z,8.63
2018-09-28T06:30:20.552Z,8.73
2018-09-28T06:32:48.774Z,9.90
2018-09-28T06:35:17.018Z,9.53
2018-09-28T06:37:45.243Z,9.17
2018-09-28T06:40:13.700Z,9.07
2018-09-28T06:42:42.416Z,9.67
2018-09-28T06:45:10.628Z,9.17
2018-09-28T06:47:38.937Z,8.80
2018-09-28T06:50:07.110Z,9.83
2018-09-28T06:52:35.589Z,12.07
2018-09-28T06:55:04.140Z,10.50
2018-09-28T06:57:32.388Z,12.10
2018-09-28T07:00:00.720Z,10.33
2018-09-28T07:02:28.822Z,10.57
2018-09-28T07:04:57.074Z,12.33
2018-09-28T07:07:25.396Z,10.47
2018-09-28T07:09:53.630Z,11.63
2018-09-28T07:12:21.894Z,12.77
2018-09-28T07:14:50.117Z,12.83
2018-09-28T07:17:18.589Z,12.67
2018-09-28T07:19:46.897Z,12.17
2018-09-28T07:22:15.262Z,11.67
2018-09-28T07:24:43.529Z,10.77
2018-09-28T07:27:11.853Z,11.20
2018-09-28T07:29:40.231Z,11.33
2018-09-28T07:32:08.477Z,11.37
2018-09-28T07:34:50.725Z,10.87
2018-09-28T07:37:19.038Z,10.40
2018-09-28T07:39:47.236Z,10.53
2018-09-28T07:42:15.604Z,10.10
2018-09-28T07:44:43.790Z,9.10
2018-09-28T07:47:12.106Z,8.23
2018-09-28T07:49:40.431Z,7.80
2018-09-28T07:52:08.642Z,8.20
2018-09-28T07:54:37.062Z,7.75
2018-09-28T07:57:05.417Z,7.47
2018-09-28T07:59:33.807Z,7.87
2018-09-28T08:02:02.099Z,7.50
2018-09-28T08:04:30.377Z,7.40
2018-09-28T08:06:58.685Z,6.90
2018-09-28T08:09:27.031Z,5.75
2018-09-28T08:11:55.309Z,8.20
2018-09-28T08:14:23.760Z,7.28
2018-09-28T08:16:52.076Z,7.62
2018-09-28T08:19:20.495Z,7.03
2018-09-28T08:21:48.923Z,7.70
2018-09-28T08:24:40.807Z,7.97
2018-09-28T08:27:09.193Z,7.53
2018-09-28T08:29:37.617Z,7.60
2018-09-28T08:32:06.139Z,7.80
2018-09-28T08:34:34.519Z,7.35
2018-09-28T08:37:02.816Z,7.92
2018-09-28T08:39:32.078Z,8.60
2018-09-28T08:42:01.695Z,7.78
2018-09-28T08:44:30.079Z,6.55
2018-09-28T08:46:58.304Z,7.37
2018-09-28T08:49:26.539Z,7.47
2018-09-28T08:51:54.763Z,7.90
2018-09-28T08:54:22.984Z,7.58
2018-09-28T08:56:51.249Z,7.95
2018-09-28T08:59:19.498Z,7.80
2018-09-28T09:01:47.861Z,8.28
2018-09-28T09:04:16.078Z,7.85
2018-09-28T09:06:44.299Z,8.15
2018-09-28T09:09:13.611Z,8.08
2018-09-28T09:11:41.919Z,8.00
2018-09-28T09:14:10.325Z,8.30
2018-09-28T09:16:38.707Z,7.92
2018-09-28T09:19:07.117Z,8.58
2018-09-28T09:21:35.344Z,8.03
2018-09-28T09:24:03.691Z,8.75
2018-09-28T09:26:31.855Z,8.88
2018-09-28T09:29:00.200Z,8.38
2018-09-28T09:31:28.438Z,8.00
2018-09-28T09:33:56.708Z,7.90
2018-09-28T09:36:25.042Z,8.10
2018-09-28T09:38:53.178Z,8.50
2018-09-28T09:41:21.399Z,7.80
2018-09-28T09:43:50.100Z,8.63
2018-09-28T09:46:18.311Z,8.75
2018-09-28T09:48:46.504Z,8.90
2018-09-28T09:51:14.666Z,8.85
2018-09-28T09:53:42.857Z,8.43
2018-09-28T09:56:11.023Z,8.93
2018-09-28T09:58:39.330Z,8.20
2018-09-28T10:01:08.104Z,7.22
2018-09-28T10:03:41.519Z,8.48
2018-09-28T10:06:10.939Z,7.67
2018-09-28T10:08:39.161Z,8.90
2018-09-28T10:11:07.382Z,7.85
2018-09-28T10:13:35.571Z,8.03
2018-09-28T10:16:03.753Z,7.45
2018-09-28T10:18:32.029Z,7.92
2018-09-28T10:21:00.249Z,8.05
2018-09-28T10:23:28.446Z,8.35
2018-09-28T10:25:56.645Z,8.38
2018-09-28T10:28:24.965Z,7.75
2018-09-28T10:30:53.148Z,7.87
2018-09-28T10:33:21.510Z,7.08
2018-09-28T10:35:49.690Z,8.78
2018-09-28T10:38:17.959Z,8.53
2018-09-28T10:40:46.276Z,8.38
2018-09-28T10:43:14.490Z,8.38
2018-09-28T10:45:42.881Z,7.75
2018-09-28T10:48:11.384Z,7.92
2018-09-28T10:50:39.600Z,6.70
2018-09-28T10:53:08.130Z,7.50
2018-09-28T10:55:36.285Z,7.22
2018-09-28T10:58:04.558Z,6.58
2018-09-28T11:00:32.845Z,6.50
2018-09-28T11:03:01.256Z,6.87
2018-09-28T11:05:29.817Z,5.92
2018-09-28T11:07:58.044Z,6.97
2018-09-28T11:10:26.320Z,6.53
2018-09-28T11:12:54.706Z,6.87
2018-09-28T11:15:24.334Z,6.78
2018-09-28T11:17:52.528Z,7.20
2018-09-28T11:20:20.739Z,6.75
2018-09-28T11:22:49.065Z,6.58
2018-09-28T11:25:22.889Z,7.22
2018-09-28T11:27:51.192Z,6.55
2018-09-28T11:30:19.508Z,7.37
2018-09-28T11:32:47.748Z,7.17
2018-09-28T11:35:18.045Z,6.47
2018-09-28T11:37:46.299Z,6.92
2018-09-28T11:40:14.470Z,7.17
2018-09-28T11:42:42.654Z,5.92
2018-09-28T11:45:11.003Z,6.37
2018-09-28T11:47:39.203Z,5.33
2018-09-28T11:50:07.621Z,6.35
2018-09-28T11:52:35.848Z,8.35
2018-09-28T11:55:04.081Z,5.90
2018-09-28T11:57:32.613Z,5.90
2018-09-28T12:00:01.050Z,5.75
2018-09-28T12:02:29.215Z,5.70
2018-09-28T12:04:57.685Z,5.80
2018-09-28T12:07:25.899Z,5.92
2018-09-28T12:09:54.143Z,5.80
2018-09-28T12:12:22.468Z,4.90
2018-09-28T12:14:50.615Z,5.03
2018-09-28T12:17:18.823Z,5.12
2018-09-28T12:19:47.264Z,5.65
2018-09-28T12:22:15.530Z,5.15
2018-09-28T12:24:44.084Z,4.75
2018-09-28T12:27:12.334Z,4.20
2018-09-28T12:29:40.537Z,4.12
2018-09-28T12:32:08.741Z,4.12
2018-09-28T12:34:36.933Z,4.50
2018-09-28T12:37:05.141Z,4.30
2018-09-28T12:39:33.377Z,4.42
2018-09-28T12:42:01.512Z,3.58
2018-09-28T12:44:30.203Z,3.55
2018-09-28T12:46:58.381Z,5.05
2018-09-28T12:49:26.715Z,3.27
2018-09-28T12:51:55.168Z,3.50
2018-09-28T12:54:23.368Z,2.92
2018-09-28T12:56:51.618Z,2.52
2018-09-28T12:59:19.733Z,1.80
2018-09-28T13:01:47.897Z,1.67
2018-09-28T13:04:17.807Z,1.67
2018-09-28T13:06:47.427Z,2.00
2018-09-28T13:09:15.592Z,1.10
2018-09-28T13:11:43.825Z,1.98
2018-09-28T13:14:12.271Z,1.82
2018-09-28T13:16:40.831Z,1.37
2018-09-28T13:19:09.519Z,2.17
2018-09-28T13:21:37.909Z,1.62
2018-09-28T13:24:06.073Z,1.70
2018-09-28T13:26:34.337Z,1.80
2018-09-28T13:29:02.565Z,1.92
2018-09-28T13:31:30.730Z,1.82
2018-09-28T13:33:58.906Z,1.87
2018-09-28T13:36:27.191Z,2.12
2018-09-28T13:38:55.457Z,2.42
2018-09-28T13:41:23.887Z,1.92
2018-09-28T13:43:52.141Z,2.35
2018-09-28T13:46:20.452Z,1.65
2018-09-28T13:48:48.793Z,2.47
2018-09-28T13:51:17.033Z,2.50
2018-09-28T13:53:45.528Z,2.40
2018-09-28T13:56:13.701Z,2.67
2018-09-28T13:58:41.990Z,2.77
2018-09-28T14:01:10.115Z,2.40
2018-09-28T14:03:38.318Z,2.22
2018-09-28T14:06:06.531Z,2.02
2018-09-28T14:08:35.022Z,2.33
2018-09-28T14:11:03.291Z,1.92
2018-09-28T14:13:31.519Z,1.80
2018-09-28T14:15:59.735Z,2.08
2018-09-28T14:18:28.024Z,1.82
2018-09-28T14:20:56.152Z,3.05
2018-09-28T14:23:24.393Z,2.58
2018-09-28T14:25:52.639Z,2.70
2018-09-28T14:28:20.886Z,2.55
2018-09-28T14:30:49.172Z,2.58
2018-09-28T14:33:17.334Z,2.75
2018-09-28T14:35:45.555Z,2.52
2018-09-28T14:38:14.016Z,2.35
2018-09-28T14:40:42.304Z,3.00
2018-09-28T14:43:10.699Z,2.90
2018-09-28T14:45:39.118Z,2.80
2018-09-28T14:48:07.377Z,3.22
2018-09-28T14:50:35.547Z,2.45
2018-09-28T14:53:03.730Z,2.65
2018-09-28T14:55:31.904Z,2.95
2018-09-28T14:58:00.121Z,2.50
2018-09-28T15:00:28.293Z,2.70
2018-09-28T15:02:56.478Z,3.15
2018-09-28T15:05:24.674Z,2.60
2018-09-28T15:07:52.893Z,3.35
2018-09-28T15:10:21.075Z,2.90
2018-09-28T15:12:49.577Z,2.65
2018-09-28T15:15:17.789Z,4.25
2018-09-28T15:17:45.938Z,4.10
2018-09-28T15:20:14.143Z,3.50
2018-09-28T15:22:42.306Z,4.22
2018-09-28T15:25:10.510Z,3.20
2018-09-28T15:27:38.679Z,3.67
2018-09-28T15:30:07.087Z,4.08
2018-09-28T15:32:35.591Z,3.92
2018-09-28T15:35:04.105Z,3.87
2018-09-28T15:37:32.223Z,4.05
2018-09-28T15:40:00.426Z,3.50
2018-09-28T15:42:28.635Z,4.00
2018-09-28T15:44:56.923Z,3.25
2018-09-28T15:47:25.451Z,3.20
2018-09-28T15:49:53.662Z,3.08
2018-09-28T15:52:21.909Z,3.80
2018-09-28T15:54:50.131Z,4.37
2018-09-28T15:57:18.637Z,6.33
2018-09-28T15:59:46.927Z,3.02
2018-09-28T16:02:15.148Z,3.05
2018-09-28T16:04:43.355Z,2.80
2018-09-28T16:07:11.606Z,2.83
2018-09-28T16:09:39.864Z,2.95
2018-09-28T16:12:08.201Z,2.65
2018-09-28T16:14:36.421Z,2.60
2018-09-28T16:17:04.680Z,3.00
2018-09-28T16:19:32.924Z,2.45
2018-09-28T16:22:01.169Z,2.75
2018-09-28T16:24:29.665Z,2.85
2018-09-28T16:26:59.717Z,2.47
2018-09-28T16:29:27.994Z,2.90
2018-09-28T16:31:56.255Z,2.52
2018-09-28T16:34:24.595Z,2.75
2018-09-28T16:36:53.096Z,2.70
2018-09-28T16:39:21.475Z,2.27
2018-09-28T16:41:49.684Z,2.47
2018-09-28T16:44:17.920Z,3.22
2018-09-28T16:46:46.199Z,2.45
2018-09-28T16:49:14.580Z,3.75
2018-09-28T16:51:42.801Z,4.10
2018-09-28T16:54:11.028Z,3.90
2018-09-28T16:56:39.392Z,2.83
2018-09-28T16:59:07.737Z,3.15
2018-09-28T17:01:35.991Z,2.50
2018-09-28T17:04:04.202Z,2.35
2018-09-28T17:06:32.439Z,2.67
2018-09-28T17:09:00.671Z,2.77
2018-09-28T17:11:28.963Z,2.20
2018-09-28T17:13:57.168Z,2.40
2018-09-28T17:16:25.410Z,2.17
2018-09-28T17:18:53.635Z,2.62
2018-09-28T17:21:21.868Z,3.20
2018-09-28T17:23:50.118Z,3.12
2018-09-28T17:26:18.370Z,2.52
2018-09-28T17:28:46.582Z,2.60
2018-09-28T17:31:14.851Z,2.08
2018-09-28T17:33:43.082Z,2.72
2018-09-28T17:36:11.337Z,3.95
2018-09-28T17:38:39.552Z,14.73
2018-09-28T17:41:07.742Z,10.13
2018-09-28T17:43:35.919Z,10.55
2018-09-28T17:46:04.165Z,10.15
2018-09-28T17:48:32.334Z,6.42
2018-09-28T17:51:00.813Z,6.70
2018-09-28T17:53:28.998Z,4.53
2018-09-28T17:55:57.215Z,5.17
2018-09-28T17:58:25.406Z,3.37
2018-09-28T18:00:53.608Z,3.53
2018-09-28T18:03:21.837Z,4.20
2018-09-28T18:05:50.334Z,4.08
2018-09-28T18:08:18.481Z,3.50
2018-09-28T18:10:46.684Z,4.90
2018-09-28T18:13:14.886Z,5.63
2018-09-28T18:15:43.108Z,5.47
2018-09-28T18:18:11.336Z,6.08
2018-09-28T18:20:39.478Z,5.80
2018-09-28T18:23:07.676Z,4.95
2018-09-28T18:25:37.055Z,5.60
2018-09-28T18:28:05.290Z,4.50
2018-09-28T18:30:33.986Z,4.17
2018-09-28T18:33:02.192Z,4.65
2018-09-28T18:35:30.399Z,14.57
2018-09-28T18:37:58.641Z,4.30
2018-09-28T18:40:26.921Z,4.55
2018-09-28T18:42:55.185Z,4.60
2018-09-28T18:45:23.408Z,4.20
2018-09-28T18:47:51.631Z,5.63
2018-09-28T18:50:20.091Z,3.47
2018-09-28T18:52:48.353Z,3.05
2018-09-28T18:55:16.718Z,3.10
2018-09-28T18:57:44.974Z,2.63
2018-09-28T19:00:13.264Z,8.88
2018-09-28T19:02:41.597Z,6.25
2018-09-28T19:05:09.933Z,3.87
2018-09-28T19:07:38.388Z,4.50
2018-09-28T19:10:06.614Z,7.90
2018-09-28T19:12:34.912Z,6.27
2018-09-28T19:15:03.101Z,3.12
2018-09-28T19:17:31.546Z,3.17
2018-09-28T19:19:59.841Z,4.10
2018-09-28T19:22:28.068Z,3.80
2018-09-28T19:24:56.304Z,2.75
2018-09-28T19:27:24.634Z,2.20
2018-09-28T19:29:53.109Z,2.85
2018-09-28T19:32:21.316Z,2.70
2018-09-28T19:34:49.561Z,2.98
2018-09-28T19:37:18.023Z,3.35
2018-09-28T19:39:46.195Z,3.25
2018-09-28T19:42:14.366Z,2.75
2018-09-28T19:44:42.558Z,3.07
2018-09-28T19:47:10.789Z,3.70
2018-09-28T19:49:39.002Z,5.10
2018-09-28T19:52:07.184Z,3.23
2018-09-28T20:01:26.520Z,3.53
2018-09-28T20:03:55.057Z,3.30
2018-09-28T20:06:23.319Z,4.30
2018-09-28T20:08:51.499Z,4.80
2018-09-28T20:11:19.735Z,5.13
2018-09-28T20:13:48.215Z,4.33
2018-09-28T20:16:16.483Z,4.40
2018-09-28T20:18:44.710Z,4.43
2018-09-28T20:21:12.931Z,5.10
2018-09-28T20:23:41.379Z,4.97
2018-09-28T20:26:09.595Z,4.83
2018-09-28T20:28:37.830Z,4.73
2018-09-28T20:31:06.359Z,4.50
2018-09-28T20:33:34.587Z,5.73
2018-09-28T20:36:02.856Z,5.40
2018-09-28T20:38:31.320Z,5.10
2018-09-28T20:40:59.730Z,4.50
2018-09-28T20:43:29.894Z,4.97
2018-09-28T20:45:58.117Z,5.83
2018-09-28T20:48:26.368Z,6.70
2018-09-28T20:50:54.671Z,7.10
2018-09-28T20:53:22.895Z,6.77
2018-09-28T20:55:51.123Z,7.87
2018-09-28T20:58:19.359Z,7.00
2018-09-28T21:00:47.582Z,6.93
2018-09-28T21:03:15.806Z,7.50
2018-09-28T21:05:44.038Z,7.90
2018-09-28T21:08:12.290Z,8.17
2018-09-28T21:10:40.511Z,7.60
2018-09-28T21:13:08.732Z,7.60
2018-09-28T21:15:36.962Z,8.37
2018-09-28T21:18:05.200Z,9.40
2018-09-28T21:20:33.638Z,8.57
2018-09-28T21:23:01.864Z,8.97
2018-09-28T21:25:30.146Z,9.10
2018-09-28T21:27:58.431Z,9.73
2018-09-28T21:30:26.678Z,9.70
2018-09-28T21:32:54.898Z,9.57
2018-09-28T21:35:23.163Z,9.30
2018-09-28T21:37:51.365Z,8.87
2018-09-28T21:40:19.591Z,8.83
2018-09-28T21:42:47.818Z,8.70
2018-09-28T21:45:16.039Z,8.40
2018-09-28T21:47:44.265Z,8.03
2018-09-28T21:50:12.495Z,7.90
2018-09-28T21:52:40.725Z,7.53
2018-09-28T21:55:10.998Z,7.17
2018-09-28T21:57:39.234Z,8.27
2018-09-28T22:00:07.510Z,6.63
2018-09-28T22:02:35.793Z,6.53
2018-09-28T22:05:03.947Z,6.43
2018-09-28T22:07:32.142Z,6.20
2018-09-28T22:10:00.325Z,6.77
2018-09-28T22:12:28.506Z,6.47
2018-09-28T22:14:56.915Z,6.27
2018-09-28T22:17:25.091Z,5.90
2018-09-28T22:19:53.850Z,6.00
2018-09-28T22:22:22.033Z,5.67
2018-09-28T22:24:50.230Z,5.93
2018-09-28T22:27:18.413Z,6.10
2018-09-28T22:29:46.822Z,5.73
2018-09-28T22:32:15.012Z,4.60
2018-09-28T22:34:43.440Z,6.00
2018-09-28T22:37:11.603Z,5.37
2018-09-28T22:39:40.233Z,4.30
2018-09-28T22:42:08.411Z,5.50
2018-09-28T22:44:36.595Z,5.23
2018-09-28T22:47:04.782Z,5.43
2018-09-28T22:49:32.967Z,5.03
2018-09-28T22:52:01.150Z,4.30
2018-09-28T22:54:29.318Z,4.67
2018-09-28T22:56:57.506Z,4.50
2018-09-28T22:59:25.670Z,4.33
2018-09-28T23:01:53.841Z,4.30
2018-09-28T23:04:22.039Z,4.03
2018-09-28T23:06:50.238Z,3.60
2018-09-28T23:09:18.642Z,4.77
2018-09-28T23:11:46.822Z,3.90
2018-09-28T23:14:15.014Z,4.23
2018-09-28T23:16:43.209Z,4.07
2018-09-28T23:19:11.370Z,3.67
2018-09-28T23:21:39.687Z,3.60
2018-09-28T23:24:07.851Z,3.83
2018-09-28T23:26:36.070Z,3.87
2018-09-28T23:29:04.550Z,3.30
2018-09-28T23:31:33.024Z,3.70
2018-09-28T23:34:01.243Z,3.60
2018-09-28T23:36:29.459Z,3.43
2018-09-28T23:38:57.702Z,3.43
2018-09-28T23:41:25.941Z,3.80
2018-09-28T23:43:54.174Z,3.60
2018-09-28T23:46:22.391Z,3.60
2018-09-28T23:48:50.627Z,3.37
2018-09-28T23:51:18.852Z,3.20
2018-09-28T23:53:47.077Z,3.63
2018-09-28T23:56:15.316Z,3.60
2018-09-28T23:58:43.779Z,3.40
